KCDS/CDS METAR and TAF weather

Enter ICAO airport designator
Station Type Date Time Source
KCDS METAR 2019/10/16 13:53 UTC NOAA

KCDS 161353Z AUTO 36004KT 10SM CLR 08/01 A3029 RMK AO2 SLP250 T00830006


Station Type Date Time Source
KCDS Decoded METAR 2019/10/16 13:53 UTC NOAA

CHILDRESS MUNICIPAL AIRPORT, TX, United States (KCDS) 34-26N 100-17W 594M
Oct 16, 2019 - 09:53 AM EDT / 2019.10.16 1353 UTC
Wind: from the N (360 degrees) at 5 MPH (4 KT):0
Visibility: 10 mile(s):0
Sky conditions: clear
Temperature: 46.9 F (8.3 C)
Dew Point: 33.1 F (0.6 C)
Relative Humidity: 58%
Pressure (altimeter): 30.29 in. Hg (1025 hPa)
ob: KCDS 161353Z AUTO 36004KT 10SM CLR 08/01 A3029 RMK AO2 SLP250 T00830006
cycle: 14

Station Type Date Time Source
KCDS TAF 2019/10/16 18:33 UTC NOAA

TAF KCDS 161731Z 1618/1718 18006KT P6SM SKC

Example: see airport list